sensor_id;sensor_type;location;lat;lon;timestamp;temperature;humidity
5689;DHT22;2869;50.432;8.680;2022-07-03T00:01:59;17.70;99.90
5689;DHT22;2869;50.432;8.680;2022-07-03T00:04:25;17.70;99.90
5689;DHT22;2869;50.432;8.680;2022-07-03T00:06:53;17.60;99.90
5689;DHT22;2869;50.432;8.680;2022-07-03T00:09:20;17.60;99.90
5689;DHT22;2869;50.432;8.680;2022-07-03T00:11:47;17.50;99.90
5689;DHT22;2869;50.432;8.680;2022-07-03T00:14:15;17.50;99.90
5689;DHT22;2869;50.432;8.680;2022-07-03T00:16:41;17.40;99.90
5689;DHT22;2869;50.432;8.680;2022-07-03T00:19:08;17.30;99.90
5689;DHT22;2869;50.432;8.680;2022-07-03T00:21:38;17.20;99.90
5689;DHT22;2869;50.432;8.680;2022-07-03T00:24:10;17.20;99.90
5689;DHT22;2869;50.432;8.680;2022-07-03T00:26:41;17.10;99.90
5689;DHT22;2869;50.432;8.680;2022-07-03T00:29:11;17.10;99.90
5689;DHT22;2869;50.432;8.680;2022-07-03T00:31:41;17.00;99.90
5689;DHT22;2869;50.432;8.680;2022-07-03T00:34:10;17.00;99.90
5689;DHT22;2869;50.432;8.680;2022-07-03T00:36:38;16.90;99.90
5689;DHT22;2869;50.432;8.680;2022-07-03T00:39:05;16.90;99.90
5689;DHT22;2869;50.432;8.680;2022-07-03T00:41:33;16.80;99.90
5689;DHT22;2869;50.432;8.680;2022-07-03T00:44:00;16.80;99.90
5689;DHT22;2869;50.432;8.680;2022-07-03T00:46:28;16.70;99.90
5689;DHT22;2869;50.432;8.680;2022-07-03T00:48:58;16.70;99.90
5689;DHT22;2869;50.432;8.680;2022-07-03T00:51:26;16.70;99.90
5689;DHT22;2869;50.432;8.680;2022-07-03T00:53:56;16.70;99.90
5689;DHT22;2869;50.432;8.680;2022-07-03T00:56:25;16.70;99.90
5689;DHT22;2869;50.432;8.680;2022-07-03T00:58:54;16.70;99.90
5689;DHT22;2869;50.432;8.680;2022-07-03T01:01:22;16.60;99.90
5689;DHT22;2869;50.432;8.680;2022-07-03T01:04:03;16.60;99.90
5689;DHT22;2869;50.432;8.680;2022-07-03T01:06:33;16.60;99.90
5689;DHT22;2869;50.432;8.680;2022-07-03T01:09:03;16.60;99.90
5689;DHT22;2869;50.432;8.680;2022-07-03T01:11:36;16.50;99.90
5689;DHT22;2869;50.432;8.680;2022-07-03T01:14:13;16.50;99.90
5689;DHT22;2869;50.432;8.680;2022-07-03T01:16:47;16.40;99.90
5689;DHT22;2869;50.432;8.680;2022-07-03T01:19:36;16.30;99.90
5689;DHT22;2869;50.432;8.680;2022-07-03T01:22:26;16.30;99.90
5689;DHT22;2869;50.432;8.680;2022-07-03T01:27:58;16.20;99.90
5689;DHT22;2869;50.432;8.680;2022-07-03T01:30:26;16.20;99.90
5689;DHT22;2869;50.432;8.680;2022-07-03T01:32:58;16.20;99.90
5689;DHT22;2869;50.432;8.680;2022-07-03T01:35:28;16.20;99.90
5689;DHT22;2869;50.432;8.680;2022-07-03T01:38:02;16.20;99.90
5689;DHT22;2869;50.432;8.680;2022-07-03T01:40:32;16.10;99.90
5689;DHT22;2869;50.432;8.680;2022-07-03T01:43:02;16.10;99.90
5689;DHT22;2869;50.432;8.680;2022-07-03T01:45:31;16.10;99.90
5689;DHT22;2869;50.432;8.680;2022-07-03T01:47:58;16.10;99.90
5689;DHT22;2869;50.432;8.680;2022-07-03T01:50:28;16.00;99.90
5689;DHT22;2869;50.432;8.680;2022-07-03T01:52:56;16.00;99.90
5689;DHT22;2869;50.432;8.680;2022-07-03T01:55:30;16.00;99.90
5689;DHT22;2869;50.432;8.680;2022-07-03T01:57:57;16.00;99.90
5689;DHT22;2869;50.432;8.680;2022-07-03T02:00:25;15.90;99.90
5689;DHT22;2869;50.432;8.680;2022-07-03T02:02:57;15.90;99.90
5689;DHT22;2869;50.432;8.680;2022-07-03T02:05:33;15.90;99.90
5689;DHT22;2869;50.432;8.680;2022-07-03T02:08:08;15.90;99.90
5689;DHT22;2869;50.432;8.680;2022-07-03T02:10:39;15.80;99.90
5689;DHT22;2869;50.432;8.680;2022-07-03T02:13:15;15.80;99.90
5689;DHT22;2869;50.432;8.680;2022-07-03T02:15:45;15.80;99.90
5689;DHT22;2869;50.432;8.680;2022-07-03T02:18:25;15.70;99.90
5689;DHT22;2869;50.432;8.680;2022-07-03T02:21:01;15.70;99.90
5689;DHT22;2869;50.432;8.680;2022-07-03T02:23:30;15.70;99.90
5689;DHT22;2869;50.432;8.680;2022-07-03T02:26:00;15.70;99.90
5689;DHT22;2869;50.432;8.680;2022-07-03T02:28:34;15.70;99.90
5689;DHT22;2869;50.432;8.680;2022-07-03T02:31:11;15.60;99.90
5689;DHT22;2869;50.432;8.680;2022-07-03T02:33:41;15.60;99.90
5689;DHT22;2869;50.432;8.680;2022-07-03T02:36:10;15.60;99.90
5689;DHT22;2869;50.432;8.680;2022-07-03T02:38:38;15.60;99.90
5689;DHT22;2869;50.432;8.680;2022-07-03T02:41:09;15.50;99.90
5689;DHT22;2869;50.432;8.680;2022-07-03T02:43:48;15.50;99.90
5689;DHT22;2869;50.432;8.680;2022-07-03T02:46:22;15.50;99.90
5689;DHT22;2869;50.432;8.680;2022-07-03T02:49:14;15.50;99.90
5689;DHT22;2869;50.432;8.680;2022-07-03T02:51:48;15.50;99.90
5689;DHT22;2869;50.432;8.680;2022-07-03T02:54:18;15.50;99.90
5689;DHT22;2869;50.432;8.680;2022-07-03T02:56:55;15.50;99.90
5689;DHT22;2869;50.432;8.680;2022-07-03T02:59:39;15.50;99.90
5689;DHT22;2869;50.432;8.680;2022-07-03T03:02:17;15.40;99.90
5689;DHT22;2869;50.432;8.680;2022-07-03T03:04:45;15.50;99.90
5689;DHT22;2869;50.432;8.680;2022-07-03T03:07:14;15.50;99.90
5689;DHT22;2869;50.432;8.680;2022-07-03T03:09:43;15.40;99.90
5689;DHT22;2869;50.432;8.680;2022-07-03T03:12:12;15.40;99.90
5689;DHT22;2869;50.432;8.680;2022-07-03T03:14:40;15.40;99.90
5689;DHT22;2869;50.432;8.680;2022-07-03T03:17:08;15.30;99.90
5689;DHT22;2869;50.432;8.680;2022-07-03T03:19:40;15.30;99.90
5689;DHT22;2869;50.432;8.680;2022-07-03T03:22:15;15.30;99.90
5689;DHT22;2869;50.432;8.680;2022-07-03T03:24:42;15.30;99.90
5689;DHT22;2869;50.432;8.680;2022-07-03T03:27:09;15.30;99.90
5689;DHT22;2869;50.432;8.680;2022-07-03T03:29:37;15.30;99.90
5689;DHT22;2869;50.432;8.680;2022-07-03T03:32:04;15.30;99.90
5689;DHT22;2869;50.432;8.680;2022-07-03T03:34:31;15.20;99.90
5689;DHT22;2869;50.432;8.680;2022-07-03T03:37:00;15.20;99.90
5689;DHT22;2869;50.432;8.680;2022-07-03T03:39:27;15.20;99.90
5689;DHT22;2869;50.432;8.680;2022-07-03T03:41:54;15.20;99.90
5689;DHT22;2869;50.432;8.680;2022-07-03T03:44:21;15.20;99.90
5689;DHT22;2869;50.432;8.680;2022-07-03T03:46:47;15.30;99.90
5689;DHT22;2869;50.432;8.680;2022-07-03T03:49:15;15.20;99.90
5689;DHT22;2869;50.432;8.680;2022-07-03T03:51:42;15.20;99.90
5689;DHT22;2869;50.432;8.680;2022-07-03T03:54:10;15.30;99.90
5689;DHT22;2869;50.432;8.680;2022-07-03T03:56:37;15.30;99.90
5689;DHT22;2869;50.432;8.680;2022-07-03T03:59:03;15.30;99.90
5689;DHT22;2869;50.432;8.680;2022-07-03T04:01:30;15.20;99.90
5689;DHT22;2869;50.432;8.680;2022-07-03T04:03:57;15.20;99.90
5689;DHT22;2869;50.432;8.680;2022-07-03T04:06:24;15.20;99.90
5689;DHT22;2869;50.432;8.680;2022-07-03T04:08:51;15.20;99.90
5689;DHT22;2869;50.432;8.680;2022-07-03T04:11:19;15.20;99.90
5689;DHT22;2869;50.432;8.680;2022-07-03T04:13:46;15.10;99.90
5689;DHT22;2869;50.432;8.680;2022-07-03T04:16:12;15.10;99.90
5689;DHT22;2869;50.432;8.680;2022-07-03T04:18:39;15.10;99.90
5689;DHT22;2869;50.432;8.680;2022-07-03T04:21:05;15.10;99.90
5689;DHT22;2869;50.432;8.680;2022-07-03T04:23:32;15.10;99.90
5689;DHT22;2869;50.432;8.680;2022-07-03T04:26:03;15.10;99.90
5689;DHT22;2869;50.432;8.680;2022-07-03T04:28:31;15.20;99.90
5689;DHT22;2869;50.432;8.680;2022-07-03T04:30:58;15.20;99.90
5689;DHT22;2869;50.432;8.680;2022-07-03T04:33:25;15.30;99.90
5689;DHT22;2869;50.432;8.680;2022-07-03T04:35:52;15.30;99.90
5689;DHT22;2869;50.432;8.680;2022-07-03T04:38:18;15.60;99.90
5689;DHT22;2869;50.432;8.680;2022-07-03T04:40:45;16.00;99.90
5689;DHT22;2869;50.432;8.680;2022-07-03T04:43:12;16.30;99.90
5689;DHT22;2869;50.432;8.680;2022-07-03T04:45:40;16.60;99.90
5689;DHT22;2869;50.432;8.680;2022-07-03T04:48:06;16.80;99.90
5689;DHT22;2869;50.432;8.680;2022-07-03T04:50:33;17.00;99.90
5689;DHT22;2869;50.432;8.680;2022-07-03T04:53:00;17.30;99.90
5689;DHT22;2869;50.432;8.680;2022-07-03T04:55:26;17.40;99.90
5689;DHT22;2869;50.432;8.680;2022-07-03T04:57:53;17.40;99.90
5689;DHT22;2869;50.432;8.680;2022-07-03T05:00:19;17.40;99.90
5689;DHT22;2869;50.432;8.680;2022-07-03T05:02:47;17.30;99.90
5689;DHT22;2869;50.432;8.680;2022-07-03T05:05:14;17.40;99.90
5689;DHT22;2869;50.432;8.680;2022-07-03T05:07:41;17.50;99.90
5689;DHT22;2869;50.432;8.680;2022-07-03T05:10:08;17.50;99.90
5689;DHT22;2869;50.432;8.680;2022-07-03T05:12:34;17.70;99.90
5689;DHT22;2869;50.432;8.680;2022-07-03T05:15:01;17.80;99.90
5689;DHT22;2869;50.432;8.680;2022-07-03T05:17:28;18.00;99.90
5689;DHT22;2869;50.432;8.680;2022-07-03T05:19:56;18.10;99.90
5689;DHT22;2869;50.432;8.680;2022-07-03T05:22:37;18.30;99.90
5689;DHT22;2869;50.432;8.680;2022-07-03T05:25:05;18.30;99.90
5689;DHT22;2869;50.432;8.680;2022-07-03T05:27:32;18.30;99.90
5689;DHT22;2869;50.432;8.680;2022-07-03T05:30:01;18.30;99.90
5689;DHT22;2869;50.432;8.680;2022-07-03T05:32:27;18.20;99.90
5689;DHT22;2869;50.432;8.680;2022-07-03T05:34:54;18.20;99.90
5689;DHT22;2869;50.432;8.680;2022-07-03T05:37:22;18.40;99.90
5689;DHT22;2869;50.432;8.680;2022-07-03T05:39:49;18.40;99.90
5689;DHT22;2869;50.432;8.680;2022-07-03T05:42:14;18.40;99.90
5689;DHT22;2869;50.432;8.680;2022-07-03T05:44:41;18.50;99.90
5689;DHT22;2869;50.432;8.680;2022-07-03T05:47:07;18.50;99.90
5689;DHT22;2869;50.432;8.680;2022-07-03T05:49:34;18.50;99.90
5689;DHT22;2869;50.432;8.680;2022-07-03T05:52:01;18.70;99.90
5689;DHT22;2869;50.432;8.680;2022-07-03T05:54:29;19.00;99.90
5689;DHT22;2869;50.432;8.680;2022-07-03T05:56:56;19.30;99.90
5689;DHT22;2869;50.432;8.680;2022-07-03T05:59:22;19.40;99.90
5689;DHT22;2869;50.432;8.680;2022-07-03T06:01:49;19.60;99.90
5689;DHT22;2869;50.432;8.680;2022-07-03T06:04:15;19.70;99.90
5689;DHT22;2869;50.432;8.680;2022-07-03T06:06:42;19.70;99.90
5689;DHT22;2869;50.432;8.680;2022-07-03T06:09:09;19.60;99.90
5689;DHT22;2869;50.432;8.680;2022-07-03T06:11:37;19.60;99.90
5689;DHT22;2869;50.432;8.680;2022-07-03T06:14:04;19.50;99.90
5689;DHT22;2869;50.432;8.680;2022-07-03T06:16:30;19.50;99.90
5689;DHT22;2869;50.432;8.680;2022-07-03T06:18:58;19.60;99.90
5689;DHT22;2869;50.432;8.680;2022-07-03T06:21:24;19.70;99.90
5689;DHT22;2869;50.432;8.680;2022-07-03T06:23:51;19.80;99.90
5689;DHT22;2869;50.432;8.680;2022-07-03T06:26:18;19.80;99.90
5689;DHT22;2869;50.432;8.680;2022-07-03T06:28:46;19.90;99.90
5689;DHT22;2869;50.432;8.680;2022-07-03T06:31:12;20.00;99.90
5689;DHT22;2869;50.432;8.680;2022-07-03T06:33:39;20.10;99.90
5689;DHT22;2869;50.432;8.680;2022-07-03T06:36:06;20.20;99.90
5689;DHT22;2869;50.432;8.680;2022-07-03T06:38:33;20.30;99.90
5689;DHT22;2869;50.432;8.680;2022-07-03T06:40:59;20.30;99.90
5689;DHT22;2869;50.432;8.680;2022-07-03T06:43:26;20.20;99.90
5689;DHT22;2869;50.432;8.680;2022-07-03T06:45:54;20.20;99.90
5689;DHT22;2869;50.432;8.680;2022-07-03T06:48:21;20.30;99.90
5689;DHT22;2869;50.432;8.680;2022-07-03T06:50:47;20.60;99.90
5689;DHT22;2869;50.432;8.680;2022-07-03T06:53:14;20.90;99.90
5689;DHT22;2869;50.432;8.680;2022-07-03T06:55:41;21.00;99.90
5689;DHT22;2869;50.432;8.680;2022-07-03T06:58:07;21.00;99.90
5689;DHT22;2869;50.432;8.680;2022-07-03T07:00:34;21.20;99.90
5689;DHT22;2869;50.432;8.680;2022-07-03T07:03:03;21.40;99.90
5689;DHT22;2869;50.432;8.680;2022-07-03T07:05:29;21.60;99.90
5689;DHT22;2869;50.432;8.680;2022-07-03T07:07:56;22.00;99.90
5689;DHT22;2869;50.432;8.680;2022-07-03T07:10:23;22.20;99.90
5689;DHT22;2869;50.432;8.680;2022-07-03T07:12:49;22.40;99.90
5689;DHT22;2869;50.432;8.680;2022-07-03T07:15:16;22.70;99.90
5689;DHT22;2869;50.432;8.680;2022-07-03T07:17:43;22.80;99.90
5689;DHT22;2869;50.432;8.680;2022-07-03T07:20:11;22.70;99.90
5689;DHT22;2869;50.432;8.680;2022-07-03T07:22:38;22.90;99.90
5689;DHT22;2869;50.432;8.680;2022-07-03T07:25:05;23.10;99.90
5689;DHT22;2869;50.432;8.680;2022-07-03T07:27:32;23.10;99.90
5689;DHT22;2869;50.432;8.680;2022-07-03T07:29:58;23.20;99.90
5689;DHT22;2869;50.432;8.680;2022-07-03T07:32:25;23.50;99.90
5689;DHT22;2869;50.432;8.680;2022-07-03T07:34:51;23.80;99.90
5689;DHT22;2869;50.432;8.680;2022-07-03T07:37:19;24.10;99.90
5689;DHT22;2869;50.432;8.680;2022-07-03T07:39:46;24.30;99.90
5689;DHT22;2869;50.432;8.680;2022-07-03T07:42:13;24.40;99.90
5689;DHT22;2869;50.432;8.680;2022-07-03T07:44:41;24.20;99.90
5689;DHT22;2869;50.432;8.680;2022-07-03T07:47:07;24.00;99.90
5689;DHT22;2869;50.432;8.680;2022-07-03T07:49:34;23.90;99.90
5689;DHT22;2869;50.432;8.680;2022-07-03T07:52:00;24.10;99.90
5689;DHT22;2869;50.432;8.680;2022-07-03T07:54:29;24.30;99.90
5689;DHT22;2869;50.432;8.680;2022-07-03T07:56:55;24.30;99.90
5689;DHT22;2869;50.432;8.680;2022-07-03T07:59:22;24.20;99.90
5689;DHT22;2869;50.432;8.680;2022-07-03T08:01:50;24.30;99.90
5689;DHT22;2869;50.432;8.680;2022-07-03T08:04:34;24.60;99.90
5689;DHT22;2869;50.432;8.680;2022-07-03T08:07:18;24.90;99.90
5689;DHT22;2869;50.432;8.680;2022-07-03T08:09:46;25.00;99.90
5689;DHT22;2869;50.432;8.680;2022-07-03T08:12:13;25.00;99.90
5689;DHT22;2869;50.432;8.680;2022-07-03T08:14:39;25.10;99.90
5689;DHT22;2869;50.432;8.680;2022-07-03T08:17:06;25.20;99.90
5689;DHT22;2869;50.432;8.680;2022-07-03T08:19:33;25.50;99.90
5689;DHT22;2869;50.432;8.680;2022-07-03T08:21:59;25.50;99.90
5689;DHT22;2869;50.432;8.680;2022-07-03T08:24:26;25.60;99.90
5689;DHT22;2869;50.432;8.680;2022-07-03T08:26:55;25.90;99.90
5689;DHT22;2869;50.432;8.680;2022-07-03T08:29:21;25.80;99.90
5689;DHT22;2869;50.432;8.680;2022-07-03T08:31:48;25.90;99.90
5689;DHT22;2869;50.432;8.680;2022-07-03T08:34:15;25.70;99.90
5689;DHT22;2869;50.432;8.680;2022-07-03T08:36:42;25.70;99.90
5689;DHT22;2869;50.432;8.680;2022-07-03T08:39:08;25.90;99.90
5689;DHT22;2869;50.432;8.680;2022-07-03T08:41:36;26.10;99.90
5689;DHT22;2869;50.432;8.680;2022-07-03T08:44:05;26.20;99.90
5689;DHT22;2869;50.432;8.680;2022-07-03T08:46:32;26.20;99.90
5689;DHT22;2869;50.432;8.680;2022-07-03T08:48:59;26.40;99.90
5689;DHT22;2869;50.432;8.680;2022-07-03T08:51:27;26.50;99.90
5689;DHT22;2869;50.432;8.680;2022-07-03T08:53:54;26.30;99.90
5689;DHT22;2869;50.432;8.680;2022-07-03T08:56:21;26.40;99.90
5689;DHT22;2869;50.432;8.680;2022-07-03T08:58:49;26.70;99.90
5689;DHT22;2869;50.432;8.680;2022-07-03T09:01:18;27.10;99.90
5689;DHT22;2869;50.432;8.680;2022-07-03T09:03:45;27.20;99.90
5689;DHT22;2869;50.432;8.680;2022-07-03T09:06:13;27.30;99.90
5689;DHT22;2869;50.432;8.680;2022-07-03T09:08:40;27.50;99.90
5689;DHT22;2869;50.432;8.680;2022-07-03T09:11:08;28.00;99.90
5689;DHT22;2869;50.432;8.680;2022-07-03T09:13:34;28.30;99.90
5689;DHT22;2869;50.432;8.680;2022-07-03T09:16:01;28.50;99.90
5689;DHT22;2869;50.432;8.680;2022-07-03T09:18:39;28.60;99.90
5689;DHT22;2869;50.432;8.680;2022-07-03T09:21:06;28.20;99.90
5689;DHT22;2869;50.432;8.680;2022-07-03T09:23:38;27.80;99.90
5689;DHT22;2869;50.432;8.680;2022-07-03T09:26:06;27.60;99.90
5689;DHT22;2869;50.432;8.680;2022-07-03T09:28:45;27.50;99.90
5689;DHT22;2869;50.432;8.680;2022-07-03T09:31:13;27.50;99.90
5689;DHT22;2869;50.432;8.680;2022-07-03T09:33:58;27.50;99.90
5689;DHT22;2869;50.432;8.680;2022-07-03T09:36:39;27.90;99.90
5689;DHT22;2869;50.432;8.680;2022-07-03T09:39:21;28.20;99.90
5689;DHT22;2869;50.432;8.680;2022-07-03T09:41:52;28.60;99.90
5689;DHT22;2869;50.432;8.680;2022-07-03T09:44:31;28.50;99.90
5689;DHT22;2869;50.432;8.680;2022-07-03T09:47:12;28.60;99.90
5689;DHT22;2869;50.432;8.680;2022-07-03T09:49:49;28.50;99.90
5689;DHT22;2869;50.432;8.680;2022-07-03T09:52:33;28.70;99.90
5689;DHT22;2869;50.432;8.680;2022-07-03T09:55:02;29.10;99.90
5689;DHT22;2869;50.432;8.680;2022-07-03T09:57:39;29.20;99.90
5689;DHT22;2869;50.432;8.680;2022-07-03T10:00:11;29.20;99.90
5689;DHT22;2869;50.432;8.680;2022-07-03T10:02:54;28.90;99.90
5689;DHT22;2869;50.432;8.680;2022-07-03T10:05:24;28.40;99.90
5689;DHT22;2869;50.432;8.680;2022-07-03T10:07:55;28.20;99.90
5689;DHT22;2869;50.432;8.680;2022-07-03T10:10:24;28.50;99.90
5689;DHT22;2869;50.432;8.680;2022-07-03T10:12:52;28.60;99.90
5689;DHT22;2869;50.432;8.680;2022-07-03T10:15:20;28.60;99.90
5689;DHT22;2869;50.432;8.680;2022-07-03T10:17:49;28.70;99.90
5689;DHT22;2869;50.432;8.680;2022-07-03T10:20:24;29.00;99.90
5689;DHT22;2869;50.432;8.680;2022-07-03T10:22:52;29.00;99.90
5689;DHT22;2869;50.432;8.680;2022-07-03T10:25:19;29.10;99.90
5689;DHT22;2869;50.432;8.680;2022-07-03T10:27:46;29.50;99.90
5689;DHT22;2869;50.432;8.680;2022-07-03T10:30:15;29.50;99.90
5689;DHT22;2869;50.432;8.680;2022-07-03T10:32:43;29.40;99.90
5689;DHT22;2869;50.432;8.680;2022-07-03T10:35:12;29.60;99.90
5689;DHT22;2869;50.432;8.680;2022-07-03T10:37:50;29.80;99.90
5689;DHT22;2869;50.432;8.680;2022-07-03T10:40:24;29.70;99.90
5689;DHT22;2869;50.432;8.680;2022-07-03T10:43:19;29.50;99.90
5689;DHT22;2869;50.432;8.680;2022-07-03T10:46:13;29.40;99.90
5689;DHT22;2869;50.432;8.680;2022-07-03T10:49:05;29.50;99.90
5689;DHT22;2869;50.432;8.680;2022-07-03T10:51:51;29.50;99.90
5689;DHT22;2869;50.432;8.680;2022-07-03T10:54:21;29.10;99.90
5689;DHT22;2869;50.432;8.680;2022-07-03T10:57:16;28.60;99.90
5689;DHT22;2869;50.432;8.680;2022-07-03T11:00:00;28.40;99.90
5689;DHT22;2869;50.432;8.680;2022-07-03T11:02:32;28.40;99.90
5689;DHT22;2869;50.432;8.680;2022-07-03T11:05:11;28.20;99.90
5689;DHT22;2869;50.432;8.680;2022-07-03T11:08:06;28.20;99.90
5689;DHT22;2869;50.432;8.680;2022-07-03T11:10:36;28.40;99.90
5689;DHT22;2869;50.432;8.680;2022-07-03T11:13:11;28.60;99.90
5689;DHT22;2869;50.432;8.680;2022-07-03T11:15:42;28.80;99.90
5689;DHT22;2869;50.432;8.680;2022-07-03T11:18:14;28.90;99.90
5689;DHT22;2869;50.432;8.680;2022-07-03T11:24:14;29.40;99.90
5689;DHT22;2869;50.432;8.680;2022-07-03T11:26:45;29.60;99.90
5689;DHT22;2869;50.432;8.680;2022-07-03T11:29:28;29.60;99.90
5689;DHT22;2869;50.432;8.680;2022-07-03T11:31:55;29.60;99.30
5689;DHT22;2869;50.432;8.680;2022-07-03T11:34:21;29.60;99.20
5689;DHT22;2869;50.432;8.680;2022-07-03T11:36:48;29.90;99.40
5689;DHT22;2869;50.432;8.680;2022-07-03T11:39:18;30.30;98.90
5689;DHT22;2869;50.432;8.680;2022-07-03T11:41:47;30.30;98.80
5689;DHT22;2869;50.432;8.680;2022-07-03T11:44:19;30.00;98.70
5689;DHT22;2869;50.432;8.680;2022-07-03T11:46:49;29.80;99.00
5689;DHT22;2869;50.432;8.680;2022-07-03T11:49:18;29.90;99.10
5689;DHT22;2869;50.432;8.680;2022-07-03T11:51:55;29.60;99.00
5689;DHT22;2869;50.432;8.680;2022-07-03T11:54:22;29.70;99.60
5689;DHT22;2869;50.432;8.680;2022-07-03T11:56:50;29.90;99.40
5689;DHT22;2869;50.432;8.680;2022-07-03T11:59:17;29.70;98.30
5689;DHT22;2869;50.432;8.680;2022-07-03T12:01:45;29.50;98.90
5689;DHT22;2869;50.432;8.680;2022-07-03T12:04:14;29.50;99.40
5689;DHT22;2869;50.432;8.680;2022-07-03T12:06:43;29.90;98.30
5689;DHT22;2869;50.432;8.680;2022-07-03T12:09:15;30.40;99.20
5689;DHT22;2869;50.432;8.680;2022-07-03T12:11:42;30.70;97.30
5689;DHT22;2869;50.432;8.680;2022-07-03T12:14:33;30.50;97.20
5689;DHT22;2869;50.432;8.680;2022-07-03T12:17:00;30.10;97.60
5689;DHT22;2869;50.432;8.680;2022-07-03T12:19:26;29.90;97.50
5689;DHT22;2869;50.432;8.680;2022-07-03T12:21:53;30.00;97.00
5689;DHT22;2869;50.432;8.680;2022-07-03T12:24:20;29.90;96.40
5689;DHT22;2869;50.432;8.680;2022-07-03T12:26:47;29.80;97.20
5689;DHT22;2869;50.432;8.680;2022-07-03T12:29:16;29.70;97.20
5689;DHT22;2869;50.432;8.680;2022-07-03T12:31:46;29.80;96.50
5689;DHT22;2869;50.432;8.680;2022-07-03T12:34:14;30.20;97.40
5689;DHT22;2869;50.432;8.680;2022-07-03T12:36:54;30.30;96.00
5689;DHT22;2869;50.432;8.680;2022-07-03T12:39:21;30.30;96.00
5689;DHT22;2869;50.432;8.680;2022-07-03T12:41:47;30.30;95.30
5689;DHT22;2869;50.432;8.680;2022-07-03T12:44:14;30.40;95.20
5689;DHT22;2869;50.432;8.680;2022-07-03T12:46:47;30.60;95.70
5689;DHT22;2869;50.432;8.680;2022-07-03T12:49:15;30.70;94.80
5689;DHT22;2869;50.432;8.680;2022-07-03T12:51:44;30.40;94.80
5689;DHT22;2869;50.432;8.680;2022-07-03T12:54:12;30.40;94.70
5689;DHT22;2869;50.432;8.680;2022-07-03T12:56:40;30.50;94.70
5689;DHT22;2869;50.432;8.680;2022-07-03T12:59:07;30.80;94.90
5689;DHT22;2869;50.432;8.680;2022-07-03T13:02:00;30.90;94.00
5689;DHT22;2869;50.432;8.680;2022-07-03T13:04:31;30.70;92.80
5689;DHT22;2869;50.432;8.680;2022-07-03T13:07:02;30.40;93.60
5689;DHT22;2869;50.432;8.680;2022-07-03T13:09:28;30.60;92.80
5689;DHT22;2869;50.432;8.680;2022-07-03T13:11:55;30.90;92.80
5689;DHT22;2869;50.432;8.680;2022-07-03T13:14:22;31.00;92.40
5689;DHT22;2869;50.432;8.680;2022-07-03T13:16:52;31.10;91.20
5689;DHT22;2869;50.432;8.680;2022-07-03T13:19:21;31.10;91.60
5689;DHT22;2869;50.432;8.680;2022-07-03T13:21:49;31.20;92.70
5689;DHT22;2869;50.432;8.680;2022-07-03T13:24:17;31.50;91.30
5689;DHT22;2869;50.432;8.680;2022-07-03T13:26:44;31.50;91.00
5689;DHT22;2869;50.432;8.680;2022-07-03T13:29:11;31.60;91.10
5689;DHT22;2869;50.432;8.680;2022-07-03T13:31:38;31.70;90.40
5689;DHT22;2869;50.432;8.680;2022-07-03T13:34:06;31.70;89.60
5689;DHT22;2869;50.432;8.680;2022-07-03T13:36:33;31.60;89.50
5689;DHT22;2869;50.432;8.680;2022-07-03T13:39:00;31.50;90.70
5689;DHT22;2869;50.432;8.680;2022-07-03T13:41:27;31.70;90.50
5689;DHT22;2869;50.432;8.680;2022-07-03T13:43:54;31.80;90.20
5689;DHT22;2869;50.432;8.680;2022-07-03T13:46:22;31.80;90.00
5689;DHT22;2869;50.432;8.680;2022-07-03T13:48:49;31.90;90.10
5689;DHT22;2869;50.432;8.680;2022-07-03T13:51:17;31.50;89.10
5689;DHT22;2869;50.432;8.680;2022-07-03T13:53:44;31.50;89.90
5689;DHT22;2869;50.432;8.680;2022-07-03T13:56:13;31.50;89.90
5689;DHT22;2869;50.432;8.680;2022-07-03T13:58:39;31.20;89.30
5689;DHT22;2869;50.432;8.680;2022-07-03T14:01:06;30.70;89.30
5689;DHT22;2869;50.432;8.680;2022-07-03T14:03:33;30.70;90.70
5689;DHT22;2869;50.432;8.680;2022-07-03T14:05:59;30.50;89.60
5689;DHT22;2869;50.432;8.680;2022-07-03T14:08:27;30.00;90.90
5689;DHT22;2869;50.432;8.680;2022-07-03T14:10:54;30.10;90.70
5689;DHT22;2869;50.432;8.680;2022-07-03T14:13:20;30.30;90.70
5689;DHT22;2869;50.432;8.680;2022-07-03T14:15:47;30.60;90.60
5689;DHT22;2869;50.432;8.680;2022-07-03T14:18:14;30.70;88.90
5689;DHT22;2869;50.432;8.680;2022-07-03T14:20:40;30.50;90.10
5689;DHT22;2869;50.432;8.680;2022-07-03T14:23:07;30.50;90.90
5689;DHT22;2869;50.432;8.680;2022-07-03T14:25:35;30.40;88.20
5689;DHT22;2869;50.432;8.680;2022-07-03T14:28:03;30.50;89.10
5689;DHT22;2869;50.432;8.680;2022-07-03T14:30:46;30.70;87.50
5689;DHT22;2869;50.432;8.680;2022-07-03T14:33:31;31.00;87.60
5689;DHT22;2869;50.432;8.680;2022-07-03T14:35:57;31.10;88.10
5689;DHT22;2869;50.432;8.680;2022-07-03T14:38:24;30.90;85.80
5689;DHT22;2869;50.432;8.680;2022-07-03T14:40:52;31.00;86.90
5689;DHT22;2869;50.432;8.680;2022-07-03T14:43:18;31.30;87.60
5689;DHT22;2869;50.432;8.680;2022-07-03T14:45:45;31.30;84.60
5689;DHT22;2869;50.432;8.680;2022-07-03T14:48:12;31.00;85.90
5689;DHT22;2869;50.432;8.680;2022-07-03T14:50:38;30.70;85.90
5689;DHT22;2869;50.432;8.680;2022-07-03T14:53:06;30.50;86.80
5689;DHT22;2869;50.432;8.680;2022-07-03T14:55:37;30.40;86.60
5689;DHT22;2869;50.432;8.680;2022-07-03T14:58:14;30.30;86.60
5689;DHT22;2869;50.432;8.680;2022-07-03T15:00:46;30.10;86.10
5689;DHT22;2869;50.432;8.680;2022-07-03T15:03:17;29.90;86.70
5689;DHT22;2869;50.432;8.680;2022-07-03T15:05:46;29.80;88.00
5689;DHT22;2869;50.432;8.680;2022-07-03T15:11:07;29.70;88.60
5689;DHT22;2869;50.432;8.680;2022-07-03T15:13:35;29.50;87.70
5689;DHT22;2869;50.432;8.680;2022-07-03T15:16:02;29.50;88.80
5689;DHT22;2869;50.432;8.680;2022-07-03T15:18:29;29.90;88.80
5689;DHT22;2869;50.432;8.680;2022-07-03T15:20:56;30.40;88.60
5689;DHT22;2869;50.432;8.680;2022-07-03T15:23:24;30.60;86.80
5689;DHT22;2869;50.432;8.680;2022-07-03T15:25:52;30.80;86.20
5689;DHT22;2869;50.432;8.680;2022-07-03T15:28:19;31.00;86.20
5689;DHT22;2869;50.432;8.680;2022-07-03T15:30:49;31.20;85.80
5689;DHT22;2869;50.432;8.680;2022-07-03T15:33:16;31.00;83.20
5689;DHT22;2869;50.432;8.680;2022-07-03T15:35:58;30.80;84.00
5689;DHT22;2869;50.432;8.680;2022-07-03T15:38:34;30.60;84.50
5689;DHT22;2869;50.432;8.680;2022-07-03T15:41:02;30.50;85.30
5689;DHT22;2869;50.432;8.680;2022-07-03T15:43:49;30.60;84.60
5689;DHT22;2869;50.432;8.680;2022-07-03T15:46:36;30.70;83.00
5689;DHT22;2869;50.432;8.680;2022-07-03T15:49:21;30.60;83.80
5689;DHT22;2869;50.432;8.680;2022-07-03T15:52:06;30.30;81.40
5689;DHT22;2869;50.432;8.680;2022-07-03T15:54:45;30.10;82.00
5689;DHT22;2869;50.432;8.680;2022-07-03T15:57:19;29.90;82.10
5689;DHT22;2869;50.432;8.680;2022-07-03T15:59:53;29.80;82.40
5689;DHT22;2869;50.432;8.680;2022-07-03T16:02:26;29.70;83.20
5689;DHT22;2869;50.432;8.680;2022-07-03T16:05:03;29.70;82.80
5689;DHT22;2869;50.432;8.680;2022-07-03T16:07:31;29.80;84.50
5689;DHT22;2869;50.432;8.680;2022-07-03T16:10:01;29.80;83.80
5689;DHT22;2869;50.432;8.680;2022-07-03T16:12:28;29.80;83.60
5689;DHT22;2869;50.432;8.680;2022-07-03T16:14:57;29.60;83.80
5689;DHT22;2869;50.432;8.680;2022-07-03T16:17:27;29.50;83.70
5689;DHT22;2869;50.432;8.680;2022-07-03T16:19:55;29.40;84.50
5689;DHT22;2869;50.432;8.680;2022-07-03T16:22:23;29.30;84.80
5689;DHT22;2869;50.432;8.680;2022-07-03T16:24:52;29.30;83.80
5689;DHT22;2869;50.432;8.680;2022-07-03T16:27:18;29.30;85.30
5689;DHT22;2869;50.432;8.680;2022-07-03T16:29:46;29.60;84.80